createdAt,value
2023-01-22T05:17:39.664Z,101045.78
2023-01-22T05:20:06.963Z,101049.41
2023-01-22T05:22:33.681Z,101044.28
2023-01-22T05:25:00.218Z,101057.09
2023-01-22T05:27:27.418Z,101048.19
2023-01-22T05:30:01.203Z,101054.41
2023-01-22T05:32:56.911Z,101052.50
2023-01-22T05:35:24.503Z,101053.72
2023-01-22T05:37:51.188Z,101060.59
2023-01-22T05:40:19.116Z,101052.03
2023-01-22T05:42:46.038Z,101054.69
2023-01-22T05:45:13.056Z,101050.38
2023-01-22T05:47:53.655Z,101054.75
2023-01-22T05:50:34.323Z,101053.72
2023-01-22T05:53:08.417Z,101069.25
2023-01-22T05:55:37.764Z,101067.78
2023-01-22T05:58:06.403Z,101063.50
2023-01-22T06:00:33.742Z,101057.69
2023-01-22T06:03:03.405Z,101054.69
2023-01-22T06:05:39.344Z,101051.81
2023-01-22T06:08:08.192Z,101058.00
2023-01-22T06:11:20.475Z,101066.59
2023-01-22T06:13:47.388Z,101071.97
2023-01-22T06:16:23.142Z,101067.75
2023-01-22T06:18:52.317Z,101073.41
2023-01-22T06:21:19.131Z,101074.56
2023-01-22T06:23:45.819Z,101078.50
2023-01-22T06:26:13.361Z,101081.53
2023-01-22T06:28:41.186Z,101078.16
2023-01-22T06:31:07.975Z,101077.13
2023-01-22T06:33:37.856Z,101074.50
2023-01-22T06:36:06.779Z,101074.44
2023-01-22T06:38:33.892Z,101080.84
2023-01-22T06:41:03.209Z,101078.50
2023-01-22T06:43:33.307Z,101083.13
2023-01-22T06:45:59.889Z,101083.16
2023-01-22T06:48:47.524Z,101085.09
2023-01-22T06:51:15.226Z,101090.00
2023-01-22T06:53:42.314Z,101097.06
2023-01-22T06:56:08.974Z,101095.81
2023-01-22T06:58:35.562Z,101094.72
2023-01-22T07:01:03.762Z,101094.59
2023-01-22T07:03:30.503Z,101105.00
2023-01-22T07:06:03.241Z,101113.25
2023-01-22T07:08:31.607Z,101108.88
2023-01-22T07:10:58.661Z,101117.34
2023-01-22T07:13:28.435Z,101122.31
2023-01-22T07:15:55.336Z,101118.06
2023-01-22T07:18:23.943Z,101124.97
2023-01-22T07:20:50.931Z,101123.66
2023-01-22T07:23:36.105Z,101124.66
2023-01-22T07:26:02.628Z,101128.03
2023-01-22T07:28:31.467Z,101130.84
2023-01-22T07:30:58.046Z,101130.66
2023-01-22T07:33:27.886Z,101132.44
2023-01-22T07:35:58.346Z,101138.25
2023-01-22T07:38:30.334Z,101144.44
2023-01-22T07:41:13.914Z,101145.38
2023-01-22T07:43:49.488Z,101153.53
2023-01-22T07:46:17.859Z,101147.91
2023-01-22T07:48:56.356Z,101157.53
2023-01-22T07:51:25.297Z,101157.59
2023-01-22T07:53:56.120Z,101155.38
2023-01-22T07:56:22.805Z,101157.41
2023-01-22T07:58:49.533Z,101154.94
2023-01-22T08:01:17.020Z,101156.66
2023-01-22T08:03:43.851Z,101165.03
2023-01-22T08:06:25.259Z,101166.03
2023-01-22T08:08:54.301Z,101167.88
2023-01-22T08:11:21.291Z,101176.88
2023-01-22T08:13:47.942Z,101176.53
2023-01-22T08:16:14.693Z,101172.28
2023-01-22T08:18:41.414Z,101179.75
2023-01-22T08:21:08.200Z,101180.91
2023-01-22T08:23:34.884Z,101182.22
2023-01-22T08:26:04.009Z,101177.78
2023-01-22T08:28:31.713Z,101179.50
2023-01-22T08:30:59.801Z,101183.66
2023-01-22T08:33:27.195Z,101184.75
2023-01-22T08:35:53.719Z,101179.41
2023-01-22T08:38:20.750Z,101183.09
2023-01-22T08:40:52.468Z,101187.66
2023-01-22T08:43:19.526Z,101182.41
2023-01-22T08:45:48.645Z,101188.78
2023-01-22T08:48:15.333Z,101191.69
2023-01-22T08:50:42.017Z,101196.94
2023-01-22T08:53:11.705Z,101195.41
2023-01-22T08:55:39.377Z,101197.94
2023-01-22T08:58:06.277Z,101203.81
2023-01-22T09:00:54.687Z,101201.84
2023-01-22T09:06:57.219Z,101204.34
2023-01-22T09:15:17.468Z,101207.78
2023-01-22T09:17:46.236Z,101215.09
2023-01-22T09:20:19.343Z,101220.84
2023-01-22T09:22:48.208Z,101213.78
2023-01-22T09:25:16.120Z,101216.09
2023-01-22T09:27:42.819Z,101212.84
2023-01-22T09:30:11.365Z,101218.22
2023-01-22T09:32:37.968Z,101219.72
2023-01-22T09:35:05.035Z,101224.13
2023-01-22T09:37:31.601Z,101222.97
2023-01-22T09:39:58.227Z,101217.59
2023-01-22T09:42:34.595Z,101222.34
2023-01-22T09:45:07.189Z,101229.25
2023-01-22T09:47:50.070Z,101233.47
2023-01-22T09:50:25.694Z,101222.09
2023-01-22T09:52:54.958Z,101230.00
2023-01-22T09:55:24.604Z,101226.84
2023-01-22T09:57:56.352Z,101234.53
2023-01-22T10:00:45.181Z,101227.47
2023-01-22T10:03:30.027Z,101225.78
2023-01-22T10:06:02.092Z,101233.78
2023-01-22T10:08:37.399Z,101232.72
2023-01-22T10:11:07.835Z,101233.44
2023-01-22T10:13:36.327Z,101235.47
2023-01-22T10:16:06.161Z,101240.78
2023-01-22T10:19:07.407Z,101237.91
2023-01-22T10:21:41.889Z,101236.25
2023-01-22T10:24:10.595Z,101241.59
2023-01-22T10:26:39.279Z,101236.16
2023-01-22T10:29:13.189Z,101231.94
2023-01-22T10:31:46.660Z,101234.41
2023-01-22T10:34:24.156Z,101239.59
2023-01-22T10:36:58.979Z,101239.78
2023-01-22T10:39:27.108Z,101233.81
2023-01-22T10:42:01.327Z,101238.91
2023-01-22T10:44:57.014Z,101235.44
2023-01-22T10:47:27.589Z,101247.09
2023-01-22T10:50:14.988Z,101243.59
2023-01-22T10:52:45.113Z,101239.00
2023-01-22T10:55:34.340Z,101244.22
2023-01-22T10:58:06.558Z,101239.25
2023-01-22T11:00:53.900Z,101243.16
2023-01-22T11:03:36.015Z,101238.19
2023-01-22T11:06:15.134Z,101241.63
2023-01-22T11:08:51.110Z,101241.53
2023-01-22T11:11:23.629Z,101242.44
2023-01-22T11:14:13.384Z,101243.44
2023-01-22T11:16:40.833Z,101244.63
2023-01-22T11:19:35.970Z,101255.34
2023-01-22T11:22:13.211Z,101247.34
2023-01-22T11:24:48.457Z,101249.09
2023-01-22T11:27:49.071Z,101247.03
2023-01-22T11:31:00.589Z,101248.41
2023-01-22T11:33:46.848Z,101253.19
2023-01-22T11:36:22.470Z,101246.31
2023-01-22T11:38:55.072Z,101248.41
2023-01-22T11:41:30.547Z,101247.50
2023-01-22T11:44:39.359Z,101249.19
2023-01-22T11:47:14.762Z,101251.53
2023-01-22T11:50:07.855Z,101240.47
2023-01-22T11:52:48.759Z,101239.59
2023-01-22T11:55:54.637Z,101239.50
2023-01-22T11:58:39.427Z,101232.59
2023-01-22T12:01:49.568Z,101241.41
2023-01-22T12:04:40.649Z,101231.66
2023-01-22T12:07:23.329Z,101230.75
2023-01-22T12:10:31.927Z,101231.56
2023-01-22T12:13:27.550Z,101229.13
2023-01-22T12:16:35.572Z,101222.50
2023-01-22T12:19:17.965Z,101218.97
2023-01-22T12:22:04.083Z,101220.81
2023-01-22T12:24:58.031Z,101214.00
2023-01-22T12:27:58.073Z,101221.78
2023-01-22T12:30:59.353Z,101215.03
2023-01-22T12:33:55.181Z,101213.22
2023-01-22T12:36:32.684Z,101211.50
2023-01-22T12:39:43.157Z,101228.75
2023-01-22T12:42:41.459Z,101218.47
2023-01-22T12:45:54.804Z,101228.84
2023-01-22T12:49:04.910Z,101223.63
2023-01-22T12:52:28.579Z,101220.13
2023-01-22T12:55:23.886Z,101221.50
2023-01-22T12:58:00.006Z,101218.97
2023-01-22T13:00:42.322Z,101225.91
2023-01-22T13:03:31.652Z,101227.81
2023-01-22T13:06:28.382Z,101220.97
2023-01-22T13:09:09.185Z,101227.13
2023-01-22T13:11:42.325Z,101227.16
2023-01-22T13:14:31.530Z,101234.22
2023-01-22T13:17:19.247Z,101229.78
2023-01-22T13:19:48.446Z,101237.63
2023-01-22T13:22:20.634Z,101241.91
2023-01-22T13:24:55.333Z,101244.16
2023-01-22T13:27:39.505Z,101249.28
2023-01-22T13:30:19.354Z,101244.41
2023-01-22T13:32:49.025Z,101248.53
2023-01-22T13:35:20.072Z,101250.63
2023-01-22T13:37:51.831Z,101250.53
2023-01-22T13:40:28.042Z,101252.91
2023-01-22T13:42:57.819Z,101250.22
2023-01-22T13:45:35.383Z,101256.50
2023-01-22T13:48:17.611Z,101260.56
2023-01-22T13:50:58.625Z,101250.94
2023-01-22T13:53:45.993Z,101250.25
2023-01-22T13:56:26.873Z,101252.13
2023-01-22T13:59:09.366Z,101254.66
2023-01-22T14:01:37.440Z,101251.16
2023-01-22T14:04:26.730Z,101255.44
2023-01-22T14:06:58.006Z,101256.44
2023-01-22T14:09:29.415Z,101257.06
2023-01-22T14:12:02.498Z,101264.28
2023-01-22T14:14:40.535Z,101265.78
2023-01-22T14:17:08.384Z,101266.88
2023-01-22T14:19:38.333Z,101268.56
2023-01-22T14:22:07.319Z,101267.66
2023-01-22T14:24:34.044Z,101265.81
2023-01-22T14:27:00.925Z,101273.84
2023-01-22T14:29:33.446Z,101268.56
2023-01-22T14:32:00.381Z,101273.59
2023-01-22T14:34:30.252Z,101269.22
2023-01-22T14:37:04.817Z,101271.28
2023-01-22T14:39:35.933Z,101268.66
2023-01-22T14:42:04.885Z,101271.13
2023-01-22T14:44:35.498Z,101281.31
2023-01-22T14:47:06.497Z,101283.72
2023-01-22T14:49:33.385Z,101281.06
2023-01-22T14:51:59.935Z,101280.50
2023-01-22T14:54:26.874Z,101281.38
2023-01-22T14:56:54.453Z,101280.00
2023-01-22T14:59:21.339Z,101281.09
2023-01-22T15:01:48.057Z,101284.84
2023-01-22T15:04:14.763Z,101284.69
2023-01-22T15:06:41.361Z,101281.41
2023-01-22T15:09:07.851Z,101289.16
2023-01-22T15:11:34.353Z,101289.22
2023-01-22T15:14:00.805Z,101293.56
2023-01-22T15:16:27.732Z,101284.66
2023-01-22T15:18:55.600Z,101297.75
2023-01-22T15:21:22.839Z,101290.56
2023-01-22T15:23:49.779Z,101290.66
2023-01-22T15:26:37.742Z,101293.63
2023-01-22T15:29:09.121Z,101304.16
2023-01-22T15:31:36.191Z,101305.25
2023-01-22T15:34:04.016Z,101306.91
2023-01-22T15:36:35.855Z,101307.84
2023-01-22T15:39:03.952Z,101310.19
2023-01-22T15:41:32.892Z,101317.13
2023-01-22T15:44:01.356Z,101316.38
2023-01-22T15:46:39.097Z,101326.19
2023-01-22T15:49:08.143Z,101321.47
2023-01-22T15:51:35.779Z,101329.41
2023-01-22T15:54:04.175Z,101326.69
2023-01-22T15:56:33.090Z,101325.09
2023-01-22T15:58:59.676Z,101319.59
2023-01-22T16:01:27.723Z,101324.75
2023-01-22T16:03:55.058Z,101326.50
2023-01-22T16:06:24.221Z,101330.78
2023-01-22T16:08:52.477Z,101334.16
2023-01-22T16:11:20.701Z,101340.44
2023-01-22T16:13:47.353Z,101343.16
2023-01-22T16:16:13.811Z,101343.81
2023-01-22T16:18:40.551Z,101337.28
2023-01-22T16:21:08.739Z,101338.81
2023-01-22T16:23:37.559Z,101343.09
2023-01-22T16:26:09.758Z,101345.38
2023-01-22T16:28:37.312Z,101340.16
2023-01-22T16:31:05.814Z,101347.00
2023-01-22T16:33:33.560Z,101349.47
2023-01-22T16:36:05.726Z,101349.81
2023-01-22T16:38:35.562Z,101355.94
2023-01-22T16:41:28.559Z,101357.91
2023-01-22T16:43:59.455Z,101359.78
2023-01-22T16:46:28.478Z,101355.34
2023-01-22T16:49:06.496Z,101363.53
2023-01-22T16:51:36.335Z,101368.88
2023-01-22T16:54:03.050Z,101370.31
2023-01-22T16:56:29.543Z,101368.25
2023-01-22T16:58:56.103Z,101371.78
2023-01-22T17:01:22.648Z,101378.53
2023-01-22T17:03:49.476Z,101380.03
2023-01-22T17:06:24.119Z,101371.69
2023-01-22T17:08:52.530Z,101374.13
2023-01-22T17:11:19.538Z,101371.63
2023-01-22T17:13:46.938Z,101376.09
2023-01-22T17:16:14.292Z,101374.44
2023-01-22T17:18:40.847Z,101382.38
2023-01-22T17:21:10.319Z,101389.06
2023-01-22T17:23:37.303Z,101381.28
2023-01-22T17:26:13.302Z,101391.00
2023-01-22T17:28:45.747Z,101396.09
2023-01-22T17:31:18.612Z,101400.50
2023-01-22T17:33:45.282Z,101406.53
2023-01-22T17:36:14.824Z,101400.50
2023-01-22T17:38:41.961Z,101400.31
2023-01-22T17:41:15.825Z,101395.28
2023-01-22T17:43:44.266Z,101406.28
2023-01-22T17:46:17.335Z,101399.44
2023-01-22T17:48:45.126Z,101411.06
2023-01-22T17:51:28.848Z,101404.88
2023-01-22T17:53:56.879Z,101408.16
2023-01-22T17:56:26.689Z,101423.78
2023-01-22T17:58:56.552Z,101413.50
2023-01-22T18:01:25.967Z,101420.34
2023-01-22T18:04:10.982Z,101419.88
2023-01-22T18:06:39.739Z,101421.56
2023-01-22T18:09:07.516Z,101422.66
2023-01-22T18:11:35.443Z,101423.34
2023-01-22T18:14:10.530Z,101431.06
2023-01-22T18:16:39.275Z,101427.66
2023-01-22T18:19:11.299Z,101426.91
2023-01-22T18:21:39.301Z,101432.13
2023-01-22T18:24:09.286Z,101437.00
2023-01-22T18:26:37.104Z,101429.19
2023-01-22T18:29:05.492Z,101431.09
2023-01-22T18:31:34.091Z,101432.72
2023-01-22T18:34:03.290Z,101435.25
2023-01-22T18:36:32.654Z,101439.91
2023-01-22T18:39:14.331Z,101448.63
2023-01-22T18:41:41.529Z,101442.59
2023-01-22T18:44:10.021Z,101451.03
2023-01-22T18:46:37.012Z,101454.66
2023-01-22T18:49:19.091Z,101448.34
2023-01-22T18:51:53.424Z,101450.03
2023-01-22T18:54:30.124Z,101451.94
2023-01-22T18:57:12.461Z,101451.22
2023-01-22T18:59:41.879Z,101456.69
2023-01-22T19:02:13.350Z,101448.75
2023-01-22T19:04:45.014Z,101453.19
2023-01-22T19:07:19.496Z,101453.47
2023-01-22T19:09:46.931Z,101452.78
2023-01-22T19:12:16.055Z,101456.81
2023-01-22T19:14:42.895Z,101453.53
2023-01-22T19:17:09.769Z,101465.50
2023-01-22T19:19:36.927Z,101462.22
2023-01-22T19:22:07.461Z,101462.47
2023-01-22T19:24:44.786Z,101468.31
2023-01-22T19:27:12.416Z,101469.22
2023-01-22T19:29:40.251Z,101475.38
2023-01-22T19:32:15.193Z,101472.81
2023-01-22T19:34:45.836Z,101479.78
2023-01-22T19:37:19.817Z,101481.44
2023-01-22T19:40:12.695Z,101488.59
2023-01-22T19:42:43.188Z,101487.09
2023-01-22T19:45:10.440Z,101481.34
2023-01-22T19:47:40.568Z,101485.06
2023-01-22T19:50:11.419Z,101481.56
2023-01-22T19:52:38.338Z,101491.19
2023-01-22T19:55:05.503Z,101488.19
2023-01-22T19:57:44.737Z,101486.56
2023-01-22T20:00:13.150Z,101488.91
2023-01-22T20:02:41.320Z,101486.50
2023-01-22T20:05:08.530Z,101489.91
2023-01-22T20:07:35.471Z,101492.59
2023-01-22T20:10:02.239Z,101505.06
2023-01-22T20:12:29.554Z,101496.91
2023-01-22T20:14:57.188Z,101501.22
2023-01-22T20:17:55.780Z,101501.97
2023-01-22T20:20:26.520Z,101512.50
2023-01-22T20:22:55.541Z,101509.25
2023-01-22T20:25:22.731Z,101511.84
2023-01-22T20:27:49.776Z,101521.00
2023-01-22T20:30:17.424Z,101520.19
2023-01-22T20:32:44.202Z,101520.88
2023-01-22T20:35:16.299Z,101519.38
2023-01-22T20:37:43.217Z,101516.84
2023-01-22T20:40:12.169Z,101511.69
2023-01-22T20:42:39.877Z,101517.66
2023-01-22T20:45:07.915Z,101500.69
2023-01-22T20:47:36.487Z,101499.47
2023-01-22T20:50:05.745Z,101511.59
2023-01-22T20:52:33.439Z,101508.31
2023-01-22T20:55:02.614Z,101510.13
2023-01-22T20:57:40.586Z,101509.00
2023-01-22T21:00:09.634Z,101518.50
2023-01-22T21:02:39.399Z,101525.72
2023-01-22T21:05:06.937Z,101524.75
2023-01-22T21:07:34.149Z,101524.75
2023-01-22T21:13:22.292Z,101520.66
2023-01-22T21:16:11.535Z,101523.16
2023-01-22T21:18:50.887Z,101524.56
2023-01-22T21:21:39.608Z,101527.84
2023-01-22T21:29:58.164Z,101530.88
2023-01-22T21:32:27.105Z,101529.13
2023-01-22T21:35:00.768Z,101525.28
2023-01-22T21:37:29.669Z,101524.16
2023-01-22T21:39:57.988Z,101519.38
2023-01-22T21:42:43.304Z,101521.19
2023-01-22T21:45:30.564Z,101523.78
2023-01-22T21:47:57.173Z,101522.78
2023-01-22T21:50:26.466Z,101521.97
2023-01-22T21:52:54.279Z,101523.72
2023-01-22T21:55:21.580Z,101526.66
2023-01-22T21:57:48.448Z,101519.81
2023-01-22T22:00:16.539Z,101522.50
2023-01-22T22:02:46.131Z,101526.09
2023-01-22T22:05:16.172Z,101523.66
2023-01-22T22:07:43.714Z,101525.59
2023-01-22T22:10:16.070Z,101528.91
2023-01-22T22:12:42.995Z,101533.19
2023-01-22T22:15:11.597Z,101539.63
2023-01-22T22:17:38.776Z,101530.16
2023-01-22T22:20:06.106Z,101535.97
2023-01-22T22:22:33.164Z,101538.56
2023-01-22T22:25:00.215Z,101540.00
2023-01-22T22:27:27.898Z,101543.00
2023-01-22T22:29:54.917Z,101547.00
2023-01-22T22:32:21.884Z,101533.41
2023-01-22T22:34:49.659Z,101545.28
2023-01-22T22:37:17.071Z,101546.91
2023-01-22T22:39:43.609Z,101545.31
2023-01-22T22:42:10.361Z,101548.84
2023-01-22T22:44:38.107Z,101556.66
2023-01-22T22:47:05.073Z,101549.75
2023-01-22T22:49:31.895Z,101555.09
2023-01-22T22:51:58.741Z,101545.56
2023-01-22T22:54:25.316Z,101547.34
2023-01-22T22:56:52.932Z,101556.25
2023-01-22T22:59:20.917Z,101560.94
